createdAt,value
2022-08-19T00:01:30.171Z,11.18
2022-08-19T00:04:02.782Z,10.77
2022-08-19T00:06:30.406Z,10.18
2022-08-19T00:08:59.076Z,9.27
2022-08-19T00:11:28.625Z,9.60
2022-08-19T00:13:58.789Z,8.98
2022-08-19T00:16:26.484Z,8.77
2022-08-19T00:18:56.524Z,8.05
2022-08-19T00:21:25.508Z,7.57
2022-08-19T00:23:52.958Z,8.85
2022-08-19T00:26:20.341Z,7.35
2022-08-19T00:28:48.173Z,7.80
2022-08-19T00:31:17.367Z,8.18
2022-08-19T00:33:45.273Z,7.20
2022-08-19T00:36:12.919Z,9.98
2022-08-19T00:38:44.384Z,7.88
2022-08-19T00:41:21.405Z,7.95
2022-08-19T00:44:28.141Z,9.02
2022-08-19T00:47:01.122Z,7.93
2022-08-19T00:49:38.297Z,8.02
2022-08-19T00:52:08.547Z,8.80
2022-08-19T00:54:38.491Z,10.85
2022-08-19T00:57:09.022Z,10.43
2022-08-19T01:00:00.343Z,10.43
2022-08-19T01:04:55.103Z,8.55
2022-08-19T01:07:22.772Z,9.55
2022-08-19T01:09:51.580Z,8.63
2022-08-19T01:12:19.284Z,9.60
2022-08-19T01:14:48.915Z,8.52
2022-08-19T01:17:17.207Z,7.47
2022-08-19T01:19:47.011Z,7.32
2022-08-19T01:22:32.878Z,7.70
2022-08-19T01:25:01.156Z,6.40
2022-08-19T01:27:43.256Z,7.35
2022-08-19T01:30:17.154Z,7.13
2022-08-19T01:32:44.578Z,6.85
2022-08-19T01:35:13.562Z,6.15
2022-08-19T01:37:57.386Z,6.28
2022-08-19T01:40:28.386Z,6.25
2022-08-19T01:42:55.960Z,6.47
2022-08-19T01:45:25.774Z,6.68
2022-08-19T01:48:01.626Z,7.45
2022-08-19T01:50:31.142Z,5.95
2022-08-19T01:53:02.461Z,5.13
2022-08-19T01:55:34.349Z,5.32
2022-08-19T01:58:05.428Z,6.60
2022-08-19T02:00:33.676Z,6.47
2022-08-19T02:03:02.184Z,4.80
2022-08-19T02:05:30.336Z,5.30
2022-08-19T02:07:58.283Z,4.57
2022-08-19T02:10:25.822Z,3.65
2022-08-19T02:12:53.284Z,3.60
2022-08-19T02:15:21.190Z,3.35
2022-08-19T02:17:49.006Z,4.68
2022-08-19T02:20:16.707Z,3.28
2022-08-19T02:22:43.822Z,3.10
2022-08-19T02:25:15.731Z,3.47
2022-08-19T02:27:44.242Z,4.20
2022-08-19T02:30:15.003Z,2.63
2022-08-19T02:32:44.940Z,3.70
2022-08-19T02:35:14.610Z,4.05
2022-08-19T02:38:01.773Z,2.97
2022-08-19T02:40:30.284Z,3.80
2022-08-19T02:42:57.743Z,7.20
2022-08-19T02:45:24.889Z,4.15
2022-08-19T02:47:52.095Z,4.75
2022-08-19T02:50:19.731Z,5.43
2022-08-19T02:52:46.836Z,4.70
2022-08-19T02:55:13.918Z,4.47
2022-08-19T02:57:43.027Z,7.45
2022-08-19T03:00:13.800Z,4.10
2022-08-19T03:02:41.282Z,6.50
2022-08-19T03:05:10.508Z,7.07
2022-08-19T03:07:38.327Z,9.20
2022-08-19T03:10:06.134Z,7.43
2022-08-19T03:12:37.936Z,6.35
2022-08-19T03:15:08.622Z,8.60
2022-08-19T03:17:36.644Z,7.80
2022-08-19T03:20:05.331Z,7.97
2022-08-19T03:22:32.362Z,7.50
2022-08-19T03:25:00.287Z,9.27
2022-08-19T03:27:32.537Z,7.50
2022-08-19T03:30:02.022Z,7.85
2022-08-19T03:32:32.275Z,7.78
2022-08-19T03:35:00.569Z,7.53
2022-08-19T03:37:27.680Z,7.90
2022-08-19T03:39:54.805Z,8.23
2022-08-19T03:42:45.412Z,8.13
2022-08-19T03:45:11.567Z,7.68
2022-08-19T03:47:38.946Z,9.52
2022-08-19T03:50:06.466Z,8.30
2022-08-19T03:52:33.673Z,8.30
2022-08-19T03:55:00.821Z,9.32
2022-08-19T03:57:27.919Z,9.85
2022-08-19T04:00:12.661Z,10.95
2022-08-19T04:02:43.019Z,9.80
2022-08-19T04:05:29.728Z,10.35
2022-08-19T04:08:00.209Z,13.18
2022-08-19T04:10:29.404Z,10.88
2022-08-19T04:12:56.504Z,10.73
2022-08-19T04:15:23.590Z,11.43
2022-08-19T04:17:50.644Z,11.75
2022-08-19T04:20:18.260Z,9.93
2022-08-19T04:22:45.416Z,10.98
2022-08-19T04:25:12.648Z,11.70
2022-08-19T04:27:39.702Z,9.85
2022-08-19T04:30:07.647Z,10.23
2022-08-19T04:32:36.476Z,11.73
2022-08-19T04:35:16.713Z,10.98
2022-08-19T04:37:46.570Z,11.48
2022-08-19T04:40:32.204Z,11.55
2022-08-19T04:42:59.534Z,12.07
2022-08-19T04:45:26.732Z,12.20
2022-08-19T04:48:27.163Z,11.80
2022-08-19T04:50:46.581Z,15.30
2022-08-19T04:53:13.651Z,11.45
2022-08-19T04:55:43.737Z,14.15
2022-08-19T04:58:11.076Z,16.60
2022-08-19T05:00:40.730Z,13.25
2022-08-19T05:03:09.587Z,11.90
2022-08-19T05:05:45.033Z,11.88
2022-08-19T05:08:31.111Z,13.75
2022-08-19T05:10:59.067Z,15.73
2022-08-19T05:13:27.541Z,13.77
2022-08-19T05:15:59.415Z,14.10
2022-08-19T05:18:45.224Z,16.98
2022-08-19T05:21:34.464Z,16.02
2022-08-19T05:24:02.358Z,16.80
2022-08-19T05:26:29.516Z,15.95
2022-08-19T05:28:56.714Z,15.45
2022-08-19T05:31:23.720Z,18.25
2022-08-19T05:33:51.650Z,14.85
2022-08-19T05:36:21.036Z,17.90
2022-08-19T05:38:48.822Z,16.98
2022-08-19T05:41:16.515Z,18.13
2022-08-19T05:43:43.569Z,16.90
2022-08-19T05:46:19.304Z,18.88
2022-08-19T05:48:57.610Z,17.70
2022-08-19T05:51:29.000Z,17.60
2022-08-19T05:53:56.539Z,18.73
2022-08-19T05:56:23.874Z,17.70
2022-08-19T05:58:51.125Z,21.95
2022-08-19T06:01:19.524Z,22.80
2022-08-19T06:03:47.064Z,25.20
2022-08-19T06:06:16.309Z,22.58
2022-08-19T06:08:49.519Z,25.25
2022-08-19T06:11:24.053Z,19.17
2022-08-19T06:13:57.272Z,16.83
2022-08-19T06:16:28.950Z,21.45
2022-08-19T06:18:58.136Z,21.90
2022-08-19T06:21:28.393Z,20.77
2022-08-19T06:26:24.633Z,20.95
2022-08-19T06:28:51.787Z,20.58
2022-08-19T06:31:21.852Z,22.00
2022-08-19T06:33:50.239Z,19.40
2022-08-19T06:36:18.627Z,20.67
2022-08-19T06:38:46.026Z,18.65
2022-08-19T06:41:13.936Z,18.50
2022-08-19T06:43:42.758Z,18.45
2022-08-19T06:46:17.257Z,21.65
2022-08-19T06:48:45.680Z,19.48
2022-08-19T06:51:19.773Z,19.30
2022-08-19T06:56:32.063Z,18.67
2022-08-19T06:58:59.694Z,19.50
2022-08-19T07:01:27.069Z,24.70
2022-08-19T07:03:54.165Z,24.35
2022-08-19T07:09:10.917Z,23.60
2022-08-19T07:11:39.507Z,24.13
2022-08-19T07:14:07.602Z,25.73
2022-08-19T07:16:51.293Z,23.35
2022-08-19T07:19:20.106Z,26.98
2022-08-19T07:21:49.840Z,29.15
2022-08-19T07:24:18.397Z,30.42
2022-08-19T07:26:46.906Z,29.92
2022-08-19T07:29:20.096Z,30.88
2022-08-19T07:31:47.336Z,29.83
2022-08-19T07:34:19.702Z,31.17
2022-08-19T07:36:47.524Z,33.90
2022-08-19T07:39:22.879Z,31.95
2022-08-19T07:41:51.478Z,33.17
2022-08-19T07:44:21.173Z,38.10
2022-08-19T07:46:53.792Z,39.28
2022-08-19T07:49:22.119Z,37.60
2022-08-19T07:51:53.620Z,35.70
2022-08-19T07:54:23.296Z,34.72
2022-08-19T07:56:52.524Z,34.33
2022-08-19T07:59:21.633Z,37.15
2022-08-19T08:01:49.290Z,38.75
2022-08-19T08:04:34.734Z,39.05
2022-08-19T08:07:20.359Z,36.22
2022-08-19T08:09:49.614Z,42.00
2022-08-19T08:12:34.366Z,39.47
2022-08-19T08:15:08.276Z,35.83
2022-08-19T08:17:48.687Z,35.55
2022-08-19T08:20:18.349Z,42.97
2022-08-19T08:23:05.854Z,40.38
2022-08-19T08:25:34.357Z,44.75
2022-08-19T08:28:03.302Z,45.83
2022-08-19T08:30:33.547Z,42.45
2022-08-19T08:33:02.657Z,45.40
2022-08-19T08:35:30.354Z,42.25
2022-08-19T08:37:57.840Z,40.80
2022-08-19T08:40:34.927Z,38.03
2022-08-19T08:43:23.970Z,39.40
2022-08-19T08:46:08.953Z,34.65
2022-08-19T08:48:54.305Z,36.13
2022-08-19T08:51:35.195Z,35.58
2022-08-19T08:54:07.885Z,39.15
2022-08-19T08:56:44.085Z,37.72
2022-08-19T08:59:35.402Z,38.20
2022-08-19T09:02:02.489Z,36.90
2022-08-19T09:04:30.177Z,40.85
2022-08-19T09:07:42.128Z,36.85
2022-08-19T09:10:30.965Z,38.25
2022-08-19T09:13:25.517Z,34.67
2022-08-19T09:16:07.975Z,37.78
2022-08-19T09:18:47.104Z,38.30
2022-08-19T09:21:16.566Z,37.03
2022-08-19T09:23:44.804Z,36.67
2022-08-19T09:26:17.641Z,37.80
2022-08-19T09:28:49.456Z,40.38
2022-08-19T09:31:19.627Z,38.58
2022-08-19T09:33:47.877Z,39.80
2022-08-19T09:36:24.274Z,40.90
2022-08-19T09:39:01.933Z,38.28
2022-08-19T09:41:29.883Z,38.60
2022-08-19T09:43:58.295Z,44.10
2022-08-19T09:46:28.620Z,39.25
2022-08-19T09:49:03.162Z,39.90
2022-08-19T09:51:34.992Z,39.33
2022-08-19T09:54:06.083Z,36.08
2022-08-19T09:56:34.166Z,36.45
2022-08-19T09:59:02.235Z,33.63
2022-08-19T10:01:31.180Z,31.73
2022-08-19T10:04:00.569Z,32.63
2022-08-19T10:06:46.315Z,32.87
2022-08-19T10:09:15.327Z,28.05
2022-08-19T10:11:52.527Z,28.67
2022-08-19T10:14:24.683Z,27.63
2022-08-19T10:16:52.981Z,27.42
2022-08-19T10:19:25.343Z,28.00
2022-08-19T10:22:00.096Z,27.85
2022-08-19T10:24:29.081Z,25.13
2022-08-19T10:26:58.933Z,24.88
2022-08-19T10:32:09.389Z,22.27
2022-08-19T10:34:48.237Z,22.10
2022-08-19T10:37:23.923Z,20.92
2022-08-19T10:39:56.599Z,19.42
2022-08-19T10:42:23.780Z,22.75
2022-08-19T10:44:52.051Z,18.67
2022-08-19T10:47:24.936Z,16.48
2022-08-19T10:50:13.191Z,13.13
2022-08-19T10:52:49.961Z,14.45
2022-08-19T10:55:50.319Z,13.52
2022-08-19T10:58:24.814Z,12.13
2022-08-19T11:00:57.543Z,11.10
2022-08-19T11:03:26.145Z,11.82
2022-08-19T11:06:04.406Z,12.50
2022-08-19T11:08:32.394Z,10.60
2022-08-19T11:11:02.208Z,11.70
2022-08-19T11:13:31.569Z,11.48
2022-08-19T11:16:08.849Z,12.55
2022-08-19T11:18:43.255Z,10.10
2022-08-19T11:21:25.813Z,9.48
2022-08-19T11:23:56.714Z,9.52
2022-08-19T11:26:24.705Z,8.65
2022-08-19T11:28:55.357Z,9.18
2022-08-19T11:31:29.166Z,9.02
2022-08-19T11:34:02.579Z,6.75
2022-08-19T11:36:30.911Z,6.05
2022-08-19T11:38:58.035Z,3.53
2022-08-19T11:41:26.654Z,2.65
2022-08-19T11:43:56.361Z,3.58
2022-08-19T11:46:27.001Z,3.25
2022-08-19T11:48:54.071Z,2.13
2022-08-19T11:51:25.592Z,2.58
2022-08-19T11:53:55.205Z,2.50
2022-08-19T11:56:23.995Z,3.17
2022-08-19T11:58:51.537Z,2.00
2022-08-19T12:01:20.906Z,4.28
2022-08-19T12:03:50.845Z,2.67
2022-08-19T12:06:21.602Z,3.00
2022-08-19T12:08:48.957Z,2.63
2022-08-19T12:11:16.503Z,2.10
2022-08-19T12:13:47.813Z,1.67
2022-08-19T12:16:19.872Z,1.55
2022-08-19T12:18:47.666Z,2.08
2022-08-19T12:21:16.327Z,1.65
2022-08-19T12:23:46.508Z,1.40
2022-08-19T12:28:40.663Z,2.00
2022-08-19T12:31:07.890Z,2.10
2022-08-19T12:33:35.365Z,3.08
2022-08-19T12:36:05.361Z,2.53
2022-08-19T12:38:33.398Z,2.63
2022-08-19T12:41:00.606Z,2.83
2022-08-19T12:43:28.088Z,3.25
2022-08-19T12:45:55.154Z,3.25
2022-08-19T12:48:33.481Z,4.20
2022-08-19T12:51:02.984Z,4.15
2022-08-19T12:53:30.187Z,4.43
2022-08-19T12:55:58.523Z,4.40
2022-08-19T12:58:27.516Z,4.28
2022-08-19T13:00:55.150Z,4.20
2022-08-19T13:03:30.181Z,4.45
2022-08-19T13:05:57.820Z,4.00
2022-08-19T13:08:24.944Z,5.45
2022-08-19T13:10:52.016Z,3.90
2022-08-19T13:13:19.141Z,3.58
2022-08-19T13:15:46.414Z,4.53
2022-08-19T13:18:14.002Z,4.38
2022-08-19T13:20:41.936Z,3.67
2022-08-19T13:23:20.042Z,5.63
2022-08-19T13:25:57.409Z,4.30
2022-08-19T13:28:29.329Z,5.25
2022-08-19T13:31:15.088Z,4.95
2022-08-19T13:33:42.152Z,5.13
2022-08-19T13:36:09.213Z,5.15
2022-08-19T13:38:39.148Z,5.63
2022-08-19T13:41:10.957Z,4.68
2022-08-19T13:43:39.351Z,4.45
2022-08-19T13:46:11.076Z,3.55
2022-08-19T13:48:38.140Z,3.55
2022-08-19T13:51:06.376Z,2.47
2022-08-19T13:53:33.725Z,2.70
2022-08-19T13:56:00.749Z,2.92
2022-08-19T13:58:27.782Z,3.03
2022-08-19T14:00:54.933Z,3.13
2022-08-19T14:03:22.106Z,2.60
2022-08-19T14:05:49.262Z,2.45
2022-08-19T14:08:16.782Z,2.78
2022-08-19T14:10:45.870Z,3.45
2022-08-19T14:13:16.916Z,4.53
2022-08-19T14:15:44.869Z,5.15
2022-08-19T14:18:12.251Z,4.72
2022-08-19T14:20:39.327Z,6.00
2022-08-19T14:23:06.862Z,7.00
2022-08-19T14:25:35.137Z,6.55
2022-08-19T14:28:02.527Z,8.88
2022-08-19T14:30:32.885Z,9.23
2022-08-19T14:33:01.941Z,10.43
2022-08-19T14:35:30.730Z,12.93
2022-08-19T14:37:59.044Z,10.88
2022-08-19T14:40:28.982Z,11.02
2022-08-19T14:43:02.130Z,10.43
2022-08-19T14:45:30.428Z,12.00
2022-08-19T14:47:57.696Z,11.65
2022-08-19T14:50:24.847Z,12.55
2022-08-19T14:53:12.787Z,15.15
2022-08-19T14:55:44.084Z,20.02
2022-08-19T14:58:29.487Z,16.85
2022-08-19T15:01:00.227Z,19.13
2022-08-19T15:03:27.765Z,15.77
2022-08-19T15:05:55.445Z,16.30
2022-08-19T15:08:25.817Z,15.30
2022-08-19T15:13:20.282Z,16.63
2022-08-19T15:15:48.518Z,14.75
2022-08-19T15:18:15.874Z,16.70
2022-08-19T15:20:44.603Z,17.33
2022-08-19T15:23:15.663Z,22.33
2022-08-19T15:25:43.396Z,16.52
2022-08-19T15:28:14.292Z,14.88
2022-08-19T15:30:41.894Z,15.43
2022-08-19T15:33:08.995Z,14.75
2022-08-19T15:35:36.071Z,15.43
2022-08-19T15:38:03.229Z,14.38
2022-08-19T15:40:30.385Z,11.45
2022-08-19T15:42:57.412Z,13.55
2022-08-19T15:45:32.912Z,13.20
2022-08-19T15:48:01.648Z,12.57
2022-08-19T15:50:30.000Z,13.13
2022-08-19T15:53:01.132Z,12.32
2022-08-19T15:55:34.652Z,13.68
2022-08-19T15:58:28.596Z,11.70
2022-08-19T16:01:21.409Z,12.75
2022-08-19T16:04:14.817Z,11.23
2022-08-19T16:06:52.953Z,9.85
2022-08-19T16:09:27.059Z,7.38
2022-08-19T16:12:03.070Z,7.25
2022-08-19T16:14:32.843Z,8.57
2022-08-19T16:17:00.172Z,7.88
2022-08-19T16:19:27.551Z,8.63
2022-08-19T16:21:56.648Z,9.93
2022-08-19T16:24:25.973Z,10.10
2022-08-19T16:26:53.795Z,10.07
2022-08-19T16:29:33.580Z,11.25
2022-08-19T16:32:05.604Z,9.32
2022-08-19T16:34:33.955Z,10.57
2022-08-19T16:37:02.010Z,10.07
2022-08-19T16:39:29.412Z,10.50
2022-08-19T16:41:57.574Z,9.73
2022-08-19T16:44:24.916Z,10.75
2022-08-19T16:46:58.984Z,9.77
2022-08-19T16:49:55.289Z,8.93
2022-08-19T16:52:20.098Z,8.52
2022-08-19T16:54:48.623Z,7.78
2022-08-19T16:57:17.040Z,7.63
2022-08-19T16:59:48.946Z,8.07
2022-08-19T17:02:22.064Z,7.68
2022-08-19T17:04:57.778Z,6.97
2022-08-19T17:07:33.296Z,6.82
2022-08-19T17:10:02.380Z,6.93
2022-08-19T17:12:32.086Z,6.45
2022-08-19T17:15:02.660Z,6.55
2022-08-19T17:19:59.298Z,4.82
2022-08-19T17:22:26.533Z,6.20
2022-08-19T17:24:56.119Z,5.22
2022-08-19T17:27:25.189Z,5.38
2022-08-19T17:29:53.151Z,5.15
2022-08-19T17:32:24.929Z,5.93
2022-08-19T17:34:54.406Z,4.68
2022-08-19T17:37:21.739Z,4.65
2022-08-19T17:39:49.260Z,5.35
2022-08-19T17:42:16.701Z,5.65
2022-08-19T17:44:44.742Z,5.00
2022-08-19T17:47:18.238Z,6.78
2022-08-19T17:49:45.349Z,5.03
2022-08-19T17:52:12.586Z,6.60
2022-08-19T17:54:39.804Z,5.72
2022-08-19T17:57:07.152Z,6.13
2022-08-19T17:59:34.371Z,5.65
2022-08-19T18:02:01.519Z,4.72
2022-08-19T18:04:29.900Z,7.55
2022-08-19T18:06:57.648Z,6.55
2022-08-19T18:09:38.739Z,7.80
2022-08-19T18:12:11.684Z,5.35
2022-08-19T18:14:40.480Z,6.10
2022-08-19T18:17:14.407Z,8.75
2022-08-19T18:19:43.864Z,6.68
2022-08-19T18:22:26.887Z,9.05
2022-08-19T18:24:54.975Z,8.48
2022-08-19T18:27:22.539Z,9.60
2022-08-19T18:29:49.806Z,10.68
2022-08-19T18:32:23.586Z,13.30
2022-08-19T18:34:53.206Z,11.07
2022-08-19T18:37:21.144Z,10.60
2022-08-19T18:40:06.712Z,11.32
2022-08-19T18:42:52.280Z,15.68
2022-08-19T18:45:37.866Z,12.57
2022-08-19T18:48:26.944Z,12.88
2022-08-19T18:50:59.646Z,14.65
2022-08-19T18:53:29.656Z,13.63
2022-08-19T18:55:58.257Z,12.80
2022-08-19T18:58:37.793Z,15.55
2022-08-19T19:01:10.850Z,13.63
2022-08-19T19:03:45.511Z,13.45
2022-08-19T19:06:19.162Z,13.25
2022-08-19T19:08:47.681Z,12.07
2022-08-19T19:11:22.693Z,12.80
2022-08-19T19:13:49.928Z,12.82
2022-08-19T19:16:20.154Z,13.50
2022-08-19T19:18:54.239Z,10.35
2022-08-19T19:21:25.521Z,12.68
2022-08-19T19:23:55.173Z,11.93
2022-08-19T19:26:22.713Z,12.65
2022-08-19T19:28:51.518Z,12.30
2022-08-19T19:31:23.709Z,12.75
2022-08-19T19:33:50.844Z,12.90
2022-08-19T19:36:17.961Z,13.80
2022-08-19T19:38:48.634Z,11.52
2022-08-19T19:41:21.138Z,12.48
2022-08-19T19:44:04.535Z,11.15
2022-08-19T19:46:38.558Z,11.45
2022-08-19T19:49:06.422Z,12.48
2022-08-19T19:51:35.626Z,12.77
2022-08-19T19:54:06.255Z,14.93
2022-08-19T19:56:34.294Z,10.32
2022-08-19T19:59:03.790Z,11.63
2022-08-19T20:01:31.166Z,13.07
2022-08-19T20:04:01.577Z,11.93
2022-08-19T20:09:10.504Z,10.43
2022-08-19T20:11:47.337Z,10.73
2022-08-19T20:14:24.400Z,10.63
2022-08-19T20:16:53.062Z,10.45
2022-08-19T20:19:23.319Z,12.88
2022-08-19T20:21:51.498Z,14.32
2022-08-19T20:24:23.146Z,13.77
2022-08-19T20:26:51.559Z,14.07
2022-08-19T20:29:39.356Z,13.10
2022-08-19T20:32:09.848Z,14.30
2022-08-19T20:34:37.396Z,12.13
2022-08-19T20:37:04.845Z,13.68
2022-08-19T20:39:32.070Z,13.52
2022-08-19T20:42:00.868Z,12.63
2022-08-19T20:44:28.184Z,13.57
2022-08-19T20:46:58.396Z,12.40
2022-08-19T20:49:27.842Z,14.43
2022-08-19T20:51:56.366Z,14.05
2022-08-19T20:54:24.611Z,13.98
2022-08-19T20:56:51.919Z,13.23
2022-08-19T20:59:20.204Z,15.10
2022-08-19T21:01:48.010Z,15.18
2022-08-19T21:04:15.532Z,15.50
2022-08-19T21:06:43.325Z,14.60
2022-08-19T21:09:13.731Z,14.70
2022-08-19T21:11:41.239Z,13.02
2022-08-19T21:14:08.494Z,15.38
2022-08-19T21:16:35.754Z,14.57
2022-08-19T21:19:03.730Z,13.45
2022-08-19T21:21:31.301Z,16.55
2022-08-19T21:23:58.576Z,14.35
2022-08-19T21:26:25.695Z,16.45
2022-08-19T21:28:52.809Z,21.05
2022-08-19T21:31:21.094Z,15.38
2022-08-19T21:33:48.263Z,14.95
2022-08-19T21:36:15.492Z,14.63
2022-08-19T21:38:42.560Z,16.20
2022-08-19T21:41:09.824Z,14.20
2022-08-19T21:43:37.893Z,17.23
2022-08-19T21:46:05.607Z,16.55
2022-08-19T21:48:33.133Z,17.25
2022-08-19T21:51:00.187Z,14.82
2022-08-19T21:53:31.490Z,15.35
2022-08-19T21:56:02.019Z,15.60
2022-08-19T21:58:30.697Z,16.05
2022-08-19T22:01:05.990Z,16.73
2022-08-19T22:03:34.218Z,14.75
2022-08-19T22:06:01.740Z,15.68
2022-08-19T22:08:29.921Z,16.25
2022-08-19T22:10:59.230Z,15.77
2022-08-19T22:13:27.158Z,14.38
2022-08-19T22:15:55.577Z,16.15
2022-08-19T22:18:22.664Z,16.50
2022-08-19T22:20:50.741Z,17.17
2022-08-19T22:23:17.862Z,16.63
2022-08-19T22:25:46.802Z,16.75
2022-08-19T22:28:18.954Z,17.20
2022-08-19T22:30:56.062Z,21.02
2022-08-19T22:33:24.038Z,20.08
2022-08-19T22:35:52.578Z,20.20
2022-08-19T22:38:19.753Z,18.83
2022-08-19T22:40:49.194Z,19.20
2022-08-19T22:43:22.075Z,19.42
2022-08-19T22:45:51.255Z,22.48
2022-08-19T22:48:20.658Z,22.25
2022-08-19T22:51:08.190Z,21.13
2022-08-19T22:53:39.663Z,21.25
2022-08-19T22:56:10.858Z,19.45
2022-08-19T22:58:42.430Z,22.38
2022-08-19T23:01:16.293Z,22.45
2022-08-19T23:03:56.923Z,20.58
2022-08-19T23:06:29.753Z,21.83
2022-08-19T23:09:04.816Z,19.83
2022-08-19T23:14:05.064Z,21.58
2022-08-19T23:16:34.801Z,21.70
2022-08-19T23:19:02.259Z,21.63
2022-08-19T23:21:29.428Z,22.27
2022-08-19T23:23:56.639Z,24.15
2022-08-19T23:26:23.736Z,21.52
2022-08-19T23:29:09.266Z,22.65
2022-08-19T23:31:36.467Z,24.40
2022-08-19T23:34:04.004Z,22.67
2022-08-19T23:36:31.141Z,25.67
2022-08-19T23:38:59.685Z,23.40
2022-08-19T23:41:29.413Z,26.23
2022-08-19T23:43:56.685Z,28.40
2022-08-19T23:46:28.570Z,21.98
2022-08-19T23:48:56.823Z,25.27
2022-08-19T23:51:26.566Z,23.60
2022-08-19T23:53:53.978Z,23.52
2022-08-19T23:56:21.636Z,25.80
2022-08-19T23:58:49.297Z,25.05
